createdAt,value
2024-03-12T00:01:01.884Z,6.90
2024-03-12T00:03:31.615Z,7.10
2024-03-12T00:08:31.351Z,7.30
2024-03-12T00:10:58.669Z,7.00
2024-03-12T00:13:27.910Z,7.00
2024-03-12T00:18:27.093Z,7.00
2024-03-12T00:20:54.737Z,6.60
2024-03-12T00:23:23.642Z,7.00
2024-03-12T00:30:45.923Z,7.00
2024-03-12T00:33:13.139Z,7.00
2024-03-12T00:45:40.215Z,7.00
2024-03-12T00:48:19.686Z,7.00
2024-03-12T00:55:48.488Z,7.00
2024-03-12T00:58:16.990Z,6.90
2024-03-12T01:05:41.704Z,6.90
2024-03-12T01:08:09.517Z,6.90
2024-03-12T01:10:37.380Z,6.90
2024-03-12T01:13:11.039Z,6.90
2024-03-12T01:15:39.621Z,6.90
2024-03-12T01:18:06.931Z,7.20
2024-03-12T01:20:36.544Z,6.90
2024-03-12T01:23:06.306Z,6.90
2024-03-12T01:28:06.801Z,6.90
2024-03-12T01:30:35.104Z,7.00
2024-03-12T01:35:31.680Z,7.00
2024-03-12T01:43:02.776Z,6.90
2024-03-12T01:47:59.733Z,6.90
2024-03-12T01:50:28.389Z,6.90
2024-03-12T01:52:58.710Z,6.90
2024-03-12T02:02:53.792Z,7.00
2024-03-12T02:07:51.810Z,6.80
2024-03-12T02:10:22.603Z,6.90
2024-03-12T02:12:49.731Z,6.70
2024-03-12T02:15:24.228Z,6.90
2024-03-12T02:20:22.971Z,6.90
2024-03-12T02:22:57.044Z,6.90
2024-03-12T02:25:24.685Z,6.90
2024-03-12T02:27:52.844Z,6.90
2024-03-12T02:32:48.480Z,6.80
2024-03-12T02:35:16.749Z,7.00
2024-03-12T02:37:44.025Z,6.90
2024-03-12T02:40:14.765Z,6.90
2024-03-12T02:45:16.695Z,7.10
2024-03-12T03:00:12.689Z,6.90
2024-03-12T03:02:39.847Z,6.80
2024-03-12T03:05:07.883Z,6.80
2024-03-12T03:07:36.582Z,6.90
2024-03-12T03:14:58.456Z,6.70
2024-03-12T03:17:26.167Z,6.80
2024-03-12T03:19:53.739Z,6.90
2024-03-12T03:22:20.737Z,6.90
2024-03-12T03:29:43.965Z,6.80
2024-03-12T03:37:05.878Z,6.90
2024-03-12T03:39:37.040Z,6.80
2024-03-12T03:44:31.251Z,6.90
2024-03-12T03:46:58.043Z,6.80
2024-03-12T03:49:25.081Z,6.80
2024-03-12T03:51:52.993Z,6.90
2024-03-12T03:56:47.088Z,6.90
2024-03-12T03:59:17.844Z,6.90
2024-03-12T04:01:45.060Z,6.80
2024-03-12T04:04:14.230Z,6.80
2024-03-12T04:06:45.047Z,6.70
2024-03-12T04:09:12.836Z,6.90
2024-03-12T04:11:40.265Z,6.80
2024-03-12T04:14:08.985Z,6.70
2024-03-12T04:16:35.991Z,7.00
2024-03-12T04:19:03.086Z,6.90
2024-03-12T04:26:24.698Z,6.70
2024-03-12T04:28:51.547Z,6.80
2024-03-12T04:31:22.116Z,6.80
2024-03-12T04:33:54.193Z,6.90
2024-03-12T04:38:52.851Z,6.80
2024-03-12T04:41:22.587Z,6.80
2024-03-12T04:43:49.893Z,6.90
2024-03-12T04:48:46.419Z,6.80
2024-03-12T04:58:37.210Z,6.80
2024-03-12T05:01:06.928Z,6.80
2024-03-12T05:06:01.826Z,6.90
2024-03-12T05:08:29.107Z,6.90
2024-03-12T05:10:57.280Z,6.90
2024-03-12T05:15:51.796Z,6.80
2024-03-12T05:18:18.725Z,6.80
2024-03-12T05:23:13.434Z,6.90
2024-03-12T05:25:41.474Z,6.90
2024-03-12T05:33:10.872Z,6.90
2024-03-12T05:35:40.270Z,6.90
2024-03-12T05:38:13.334Z,6.90
2024-03-12T05:40:58.990Z,6.90
2024-03-12T05:43:44.440Z,6.90
2024-03-12T05:51:26.370Z,6.90
2024-03-12T05:56:21.367Z,7.20
2024-03-12T05:58:48.433Z,6.90
2024-03-12T06:01:16.026Z,7.10
2024-03-12T06:11:05.387Z,7.10
2024-03-12T06:15:59.694Z,7.10
2024-03-12T06:18:29.522Z,7.10
2024-03-12T06:23:24.780Z,7.20
2024-03-12T06:25:52.030Z,6.90
2024-03-12T06:28:23.201Z,7.20
2024-03-12T06:35:49.184Z,7.20
2024-03-12T06:43:14.658Z,7.20
2024-03-12T06:45:42.407Z,7.20
2024-03-12T06:48:09.583Z,7.20
2024-03-12T06:50:36.478Z,7.20
2024-03-12T06:53:03.493Z,7.20
2024-03-12T07:03:06.377Z,7.20
2024-03-12T07:08:11.776Z,7.50
2024-03-12T07:10:41.919Z,7.30
2024-03-12T07:15:40.077Z,7.30
2024-03-12T07:23:03.986Z,7.40
2024-03-12T07:30:36.947Z,7.40
2024-03-12T07:33:04.942Z,7.40
2024-03-12T07:35:35.714Z,7.50
2024-03-12T07:38:04.997Z,7.60
2024-03-12T07:40:32.874Z,7.50
2024-03-12T07:50:29.785Z,7.70
2024-03-12T08:07:45.641Z,8.20
2024-03-12T08:15:10.383Z,7.90
2024-03-12T08:17:39.215Z,7.70
2024-03-12T08:20:07.309Z,7.80
2024-03-12T08:22:34.157Z,8.20
2024-03-12T08:25:01.078Z,9.00
2024-03-12T08:27:28.117Z,8.10
2024-03-12T08:29:58.307Z,8.10
2024-03-12T08:34:53.531Z,8.10
2024-03-12T08:37:20.442Z,8.20
2024-03-12T08:39:48.046Z,8.20
2024-03-12T08:42:14.979Z,8.20
2024-03-12T08:44:41.917Z,8.20
2024-03-12T08:47:09.918Z,8.30
2024-03-12T08:49:36.764Z,8.40
2024-03-12T08:54:34.891Z,8.30
2024-03-12T09:02:01.128Z,8.30
2024-03-12T09:04:32.591Z,8.40
2024-03-12T09:07:00.290Z,8.50
2024-03-12T09:09:27.965Z,8.40
2024-03-12T09:11:57.214Z,8.50
2024-03-12T09:14:24.778Z,8.40
2024-03-12T09:16:52.818Z,8.40
2024-03-12T09:19:19.677Z,8.40
2024-03-12T09:24:16.404Z,8.50
2024-03-12T09:26:45.299Z,8.40
2024-03-12T09:34:12.246Z,8.30
2024-03-12T09:36:39.538Z,8.50
2024-03-12T09:39:12.301Z,8.50
2024-03-12T09:41:44.118Z,8.60
2024-03-12T09:44:12.414Z,8.60
2024-03-12T09:46:42.336Z,8.70
2024-03-12T09:49:14.368Z,8.80
2024-03-12T09:51:42.710Z,8.80
2024-03-12T09:54:10.415Z,8.80
2024-03-12T10:01:39.512Z,9.00
2024-03-12T10:06:34.980Z,9.00
2024-03-12T10:09:02.249Z,9.20
2024-03-12T10:11:31.402Z,9.10
2024-03-12T10:19:11.336Z,9.30
2024-03-12T10:21:39.038Z,9.40
2024-03-12T10:24:23.989Z,9.60
2024-03-12T10:29:21.797Z,9.40
2024-03-12T10:31:49.325Z,10.00
2024-03-12T10:34:21.314Z,9.60
2024-03-12T10:36:50.904Z,9.70
2024-03-12T10:39:29.553Z,9.40
2024-03-12T10:41:59.032Z,9.50
2024-03-12T10:44:29.173Z,9.50
2024-03-12T10:46:59.645Z,9.40
2024-03-12T10:49:27.918Z,9.50
2024-03-12T10:51:56.473Z,9.70
2024-03-12T10:56:51.478Z,9.50
2024-03-12T10:59:20.726Z,9.10
2024-03-12T11:01:49.421Z,9.50
2024-03-12T11:04:17.131Z,10.10
2024-03-12T11:06:46.663Z,9.10
2024-03-12T11:09:22.485Z,9.50
2024-03-12T11:11:53.611Z,9.80
2024-03-12T11:16:49.140Z,9.50
2024-03-12T11:19:24.486Z,10.10
2024-03-12T11:22:06.992Z,9.50
2024-03-12T11:24:50.780Z,11.80
2024-03-12T11:27:26.916Z,9.40
2024-03-12T11:30:06.200Z,9.40
2024-03-12T11:32:41.620Z,9.40
2024-03-12T11:35:29.535Z,9.40
2024-03-12T11:37:59.524Z,10.10
2024-03-12T11:40:48.112Z,9.60
2024-03-12T11:43:39.234Z,9.40
2024-03-12T11:46:10.990Z,9.40
2024-03-12T11:48:42.651Z,9.50
2024-03-12T11:51:13.469Z,9.60
2024-03-12T11:53:42.720Z,9.60
2024-03-12T11:56:12.306Z,9.20
2024-03-12T11:58:48.420Z,9.60
2024-03-12T12:01:24.621Z,9.50
2024-03-12T12:04:00.620Z,9.50
2024-03-12T12:06:28.703Z,9.50
2024-03-12T12:14:00.577Z,9.40
2024-03-12T12:19:06.644Z,9.50
2024-03-12T12:21:34.990Z,10.00
2024-03-12T12:24:04.473Z,9.10
2024-03-12T12:26:34.513Z,10.90
2024-03-12T12:29:04.767Z,9.50
2024-03-12T12:31:36.951Z,9.40
2024-03-12T12:34:06.527Z,9.00
2024-03-12T12:36:37.183Z,10.70
2024-03-12T12:39:05.477Z,10.80
2024-03-12T12:41:36.198Z,9.30
2024-03-12T12:44:22.632Z,9.00
2024-03-12T12:46:50.367Z,9.40
2024-03-12T12:49:18.770Z,8.90
2024-03-12T12:54:16.860Z,9.50
2024-03-12T12:56:45.727Z,10.00
2024-03-12T12:59:17.957Z,10.30
2024-03-12T13:01:48.932Z,9.50
2024-03-12T13:04:21.425Z,9.50
2024-03-12T13:06:48.690Z,9.30
2024-03-12T13:09:33.305Z,9.50
2024-03-12T13:12:01.763Z,9.40
2024-03-12T13:14:29.029Z,9.40
2024-03-12T13:16:56.487Z,9.00
2024-03-12T13:26:49.778Z,9.20
2024-03-12T13:29:17.070Z,9.00
2024-03-12T13:31:44.481Z,9.10
2024-03-12T13:34:11.347Z,9.50
2024-03-12T13:36:38.245Z,9.20
2024-03-12T13:39:07.090Z,9.10
2024-03-12T13:41:33.954Z,9.20
2024-03-12T13:44:00.735Z,9.10
2024-03-12T13:46:27.646Z,9.10
2024-03-12T13:49:14.813Z,9.10
2024-03-12T13:59:06.298Z,8.80
2024-03-12T14:01:33.815Z,8.90
2024-03-12T14:08:58.178Z,9.00
2024-03-12T14:13:57.152Z,8.90
2024-03-12T14:16:25.351Z,8.90
2024-03-12T14:41:07.562Z,8.90
2024-03-12T15:13:17.400Z,8.90
2024-03-12T15:18:14.329Z,8.80
2024-03-12T15:25:37.746Z,8.60
2024-03-12T15:30:34.585Z,8.70
2024-03-12T15:52:45.281Z,8.50
2024-03-12T16:05:07.380Z,8.40
2024-03-12T16:10:05.704Z,8.30
2024-03-12T16:27:22.054Z,8.30
2024-03-12T16:29:48.975Z,8.20
2024-03-12T16:49:38.767Z,8.00
2024-03-12T16:57:06.796Z,7.90
2024-03-12T17:07:09.107Z,7.90
2024-03-12T17:12:06.447Z,8.00
2024-03-12T17:14:36.227Z,8.10
2024-03-12T17:17:07.242Z,7.90
2024-03-12T17:19:36.497Z,8.00
2024-03-12T17:24:35.551Z,7.90
2024-03-12T17:27:06.127Z,7.80
2024-03-12T17:29:33.264Z,7.90
2024-03-12T17:34:29.045Z,7.80
2024-03-12T17:36:58.110Z,8.00
2024-03-12T17:39:25.461Z,8.00
2024-03-12T17:41:53.059Z,8.00
2024-03-12T17:49:20.794Z,8.10
2024-03-12T17:54:18.344Z,8.00
2024-03-12T17:56:49.435Z,8.00
2024-03-12T17:59:20.277Z,7.90
2024-03-12T18:01:48.243Z,7.90
2024-03-12T18:04:15.906Z,8.00
2024-03-12T18:06:44.030Z,8.00
2024-03-12T18:09:19.920Z,7.90
2024-03-12T18:14:15.839Z,8.00
2024-03-12T18:16:42.617Z,7.90
2024-03-12T18:36:25.957Z,7.80
2024-03-12T18:38:52.778Z,8.00
2024-03-12T18:43:46.830Z,7.80
2024-03-12T18:46:13.812Z,7.30
2024-03-12T18:48:42.317Z,9.60
2024-03-12T18:53:39.015Z,7.80
2024-03-12T18:56:06.200Z,7.70
2024-03-12T18:58:33.428Z,7.70
2024-03-12T19:01:02.710Z,7.80
2024-03-12T19:03:51.149Z,7.70
2024-03-12T19:06:22.075Z,7.90
2024-03-12T19:08:53.915Z,7.80
2024-03-12T19:11:21.290Z,7.70
2024-03-12T19:13:48.683Z,7.20
2024-03-12T19:16:19.897Z,7.70
2024-03-12T19:18:51.058Z,7.70
2024-03-12T19:21:20.735Z,7.70
2024-03-12T19:23:49.618Z,7.70
2024-03-12T19:26:19.034Z,7.60
2024-03-12T19:31:15.773Z,7.50
2024-03-12T19:33:45.070Z,7.60
2024-03-12T19:36:15.704Z,7.70
2024-03-12T19:38:42.734Z,7.70
2024-03-12T19:41:13.463Z,7.60
2024-03-12T19:43:40.690Z,7.60
2024-03-12T19:46:08.964Z,7.50
2024-03-12T19:48:37.082Z,7.40
2024-03-12T19:51:05.271Z,7.40
2024-03-12T19:53:34.288Z,7.40
2024-03-12T19:56:01.735Z,7.50
2024-03-12T19:58:29.555Z,7.50
2024-03-12T20:03:26.598Z,7.50
2024-03-12T20:05:56.280Z,8.00
2024-03-12T20:08:24.140Z,8.50
2024-03-12T20:10:51.060Z,7.50
2024-03-12T20:13:18.008Z,7.50
2024-03-12T20:18:15.063Z,7.50
2024-03-12T20:20:44.608Z,7.50
2024-03-12T20:25:41.019Z,7.50
2024-03-12T20:28:10.861Z,7.50
2024-03-12T20:35:39.992Z,7.40
2024-03-12T20:38:09.809Z,7.50
2024-03-12T20:50:31.047Z,7.50
2024-03-12T20:55:25.784Z,7.20
2024-03-12T20:57:53.252Z,7.50
2024-03-12T21:03:10.380Z,7.40
2024-03-12T21:13:12.466Z,7.40
2024-03-12T21:15:39.292Z,7.20
2024-03-12T21:18:07.255Z,7.40
2024-03-12T21:35:27.647Z,7.40
2024-03-12T21:37:54.616Z,7.30
2024-03-12T21:42:51.630Z,7.40
2024-03-12T21:45:20.351Z,7.40
2024-03-12T21:52:44.530Z,7.40
2024-03-12T21:55:12.327Z,7.40
2024-03-12T21:57:40.950Z,8.70
2024-03-12T22:00:12.548Z,7.30
2024-03-12T22:02:39.861Z,8.10
2024-03-12T22:07:38.155Z,7.30
2024-03-12T22:10:06.572Z,7.30
2024-03-12T22:12:33.399Z,7.40
2024-03-12T22:15:00.256Z,7.30
2024-03-12T22:17:27.490Z,7.30
2024-03-12T22:22:23.596Z,7.20
2024-03-12T22:24:50.658Z,7.20
2024-03-12T22:29:47.139Z,7.30
2024-03-12T22:32:21.898Z,7.20
2024-03-12T22:37:16.505Z,7.10
2024-03-12T22:42:11.496Z,7.10
2024-03-12T22:44:38.536Z,7.10
2024-03-12T22:47:09.070Z,7.20
2024-03-12T22:52:06.465Z,7.10
2024-03-12T22:54:34.217Z,6.90
2024-03-12T22:57:01.593Z,6.70
2024-03-12T22:59:28.702Z,7.10
2024-03-12T23:01:57.466Z,7.10
2024-03-12T23:04:26.574Z,7.20
2024-03-12T23:11:50.764Z,7.00
2024-03-12T23:16:47.215Z,7.10
2024-03-12T23:19:14.384Z,7.10
2024-03-12T23:21:41.280Z,7.00
2024-03-12T23:24:09.027Z,7.20
2024-03-12T23:26:35.994Z,7.10
2024-03-12T23:31:31.355Z,7.10
2024-03-12T23:33:59.217Z,7.10
2024-03-12T23:36:28.921Z,7.30
2024-03-12T23:38:57.439Z,7.10
2024-03-12T23:41:24.925Z,7.00
2024-03-12T23:43:53.952Z,6.80
2024-03-12T23:56:12.103Z,7.00
2024-03-12T23:58:39.850Z,7.10
